Time;durP1;ratioP1;P1;durP2;ratioP2;P2;SDS_P1;SDS_P2;PMS_P1;PMS_P2;Temp;Humidity;BMP_temperature;BMP_pressure;BME280_temperature;BME280_humidity;BME280_pressure;Samples;Min_cycle;Max_cycle;Signal;HPM_P1;HPM_P2
2023/10/21 00:01:42;;;;;;;1.10;1.00;;;13.70;91.20;;;;;;4985474;28;20488;-63
2023/10/21 00:04:08;;;;;;;1.00;0.90;;;13.70;91.20;;;;;;4985971;28;20035;-63
2023/10/21 00:06:34;;;;;;;0.80;0.80;;;13.70;91.20;;;;;;4985215;28;20180;-63
2023/10/21 00:09:00;;;;;;;1.38;0.90;;;13.70;91.20;;;;;;4985391;28;20074;-63
2023/10/21 00:11:25;;;;;;;0.55;0.55;;;13.70;91.20;;;;;;4983110;28;20082;-62
2023/10/21 00:13:51;;;;;;;0.80;0.80;;;13.70;91.20;;;;;;4985802;28;20494;-63
2023/10/21 00:16:16;;;;;;;0.65;0.60;;;13.70;91.20;;;;;;4985652;28;20470;-63
2023/10/21 00:18:42;;;;;;;1.33;1.00;;;13.70;91.10;;;;;;4984733;28;20049;-63
2023/10/21 00:21:07;;;;;;;1.38;0.80;;;13.70;91.10;;;;;;4986311;28;20532;-62
2023/10/21 00:23:33;;;;;;;0.60;0.52;;;13.70;91.00;;;;;;4985364;28;20169;-64
2023/10/21 00:26:02;;;;;;;0.73;0.70;;;13.70;91.00;;;;;;4985076;28;20565;-63
2023/10/21 00:28:28;;;;;;;0.65;0.50;;;13.70;91.00;;;;;;4984835;28;20042;-63
2023/10/21 00:30:54;;;;;;;0.50;0.50;;;13.70;91.00;;;;;;4985337;28;20034;-63
2023/10/21 00:33:19;;;;;;;0.85;0.57;;;13.70;91.00;;;;;;4985774;28;20410;-63
2023/10/21 00:35:45;;;;;;;0.60;0.60;;;13.70;91.10;;;;;;4985135;28;20053;-64
2023/10/21 00:38:11;;;;;;;0.40;0.40;;;13.60;91.10;;;;;;4985695;28;20043;-63
2023/10/21 00:40:37;;;;;;;1.20;0.90;;;13.70;91.10;;;;;;4984677;28;20045;-64
2023/10/21 00:43:03;;;;;;;0.70;0.60;;;13.70;91.00;;;;;;4985344;28;20429;-64
2023/10/21 00:45:29;;;;;;;0.70;0.68;;;13.70;91.00;;;;;;4984464;28;20054;-63
2023/10/21 00:47:54;;;;;;;0.70;0.60;;;13.70;91.10;;;;;;4985386;28;20092;-64
2023/10/21 00:50:20;;;;;;;1.30;0.45;;;13.60;91.00;;;;;;4983758;28;20033;-63
2023/10/21 00:52:47;;;;;;;0.80;0.60;;;13.60;91.00;;;;;;4984880;28;20035;-63
2023/10/21 00:55:13;;;;;;;0.65;0.60;;;13.60;91.40;;;;;;4984880;28;20554;-63
2023/10/21 00:57:39;;;;;;;0.32;0.30;;;13.60;91.10;;;;;;4984232;28;20037;-63
2023/10/21 01:00:10;;;;;;;2.20;0.50;;;13.60;91.10;;;;;;4984788;28;20023;-63
2023/10/21 01:02:42;;;;;;;0.50;0.50;;;13.60;91.10;;;;;;4982773;28;20150;-64
2023/10/21 01:05:08;;;;;;;0.63;0.40;;;13.60;91.20;;;;;;4984969;28;20042;-63
2023/10/21 01:07:36;;;;;;;0.93;0.50;;;13.60;91.20;;;;;;4985997;28;20061;-63
2023/10/21 01:10:05;;;;;;;0.50;0.40;;;13.60;91.20;;;;;;4986950;28;20042;-63
2023/10/21 01:12:30;;;;;;;0.50;0.50;;;13.60;91.20;;;;;;4986632;28;20038;-64
2023/10/21 01:14:56;;;;;;;0.50;0.50;;;13.70;91.20;;;;;;4988722;28;20039;-63
2023/10/21 01:17:22;;;;;;;3.78;0.77;;;13.60;91.20;;;;;;4988510;28;20049;-63
2023/10/21 01:19:48;;;;;;;0.40;0.40;;;13.60;91.20;;;;;;4988244;28;20049;-64
2023/10/21 01:22:14;;;;;;;1.75;0.70;;;13.60;91.20;;;;;;4988714;28;20140;-63
2023/10/21 01:24:40;;;;;;;1.25;0.60;;;13.60;91.20;;;;;;4987960;28;20717;-62
2023/10/21 01:27:05;;;;;;;0.40;0.40;;;13.60;91.20;;;;;;4988126;28;20039;-63
2023/10/21 01:29:31;;;;;;;0.93;0.60;;;13.60;91.20;;;;;;4988489;28;20042;-63
2023/10/21 01:31:56;;;;;;;0.73;0.50;;;13.60;91.20;;;;;;4988150;28;20524;-64
2023/10/21 01:34:22;;;;;;;0.80;0.60;;;13.60;91.20;;;;;;4988115;28;20408;-63
2023/10/21 01:36:47;;;;;;;1.77;0.63;;;13.60;91.20;;;;;;4988561;28;20030;-64
2023/10/21 01:39:14;;;;;;;0.65;0.52;;;13.60;91.20;;;;;;4987947;28;20395;-63
2023/10/21 01:41:39;;;;;;;0.50;0.50;;;13.60;91.20;;;;;;4988245;28;20065;-64
2023/10/21 01:44:05;;;;;;;0.82;0.50;;;13.50;91.20;;;;;;4987744;28;20065;-63
2023/10/21 01:46:31;;;;;;;0.30;0.30;;;13.50;91.20;;;;;;4987439;28;20042;-63
2023/10/21 01:48:56;;;;;;;0.38;0.38;;;13.60;91.30;;;;;;4987242;28;20100;-64
2023/10/21 01:51:22;;;;;;;0.40;0.40;;;13.60;91.20;;;;;;4987758;28;20037;-64
2023/10/21 01:53:47;;;;;;;1.42;0.40;;;13.60;91.30;;;;;;4987862;28;20034;-64
2023/10/21 01:56:13;;;;;;;0.30;0.30;;;13.60;91.20;;;;;;4987848;28;20130;-63
2023/10/21 01:58:39;;;;;;;0.63;0.50;;;13.60;91.20;;;;;;4987079;28;20521;-64
2023/10/21 02:01:11;;;;;;;0.50;0.43;;;13.70;91.20;;;;;;4987599;28;20037;-64
2023/10/21 02:03:37;;;;;;;0.75;0.30;;;13.80;91.20;;;;;;4987365;28;20038;-62
2023/10/21 02:06:07;;;;;;;0.43;0.30;;;13.80;91.10;;;;;;4987641;28;20530;-63
2023/10/21 02:08:33;;;;;;;0.22;0.22;;;13.80;91.00;;;;;;4987051;28;20518;-64
2023/10/21 02:10:58;;;;;;;0.82;0.40;;;13.90;91.00;;;;;;4983797;28;20049;-63
2023/10/21 02:13:24;;;;;;;1.83;0.32;;;13.90;90.90;;;;;;4987655;28;20034;-64
2023/10/21 02:15:53;;;;;;;1.35;0.40;;;13.90;90.90;;;;;;4987579;28;20101;-64
2023/10/21 02:18:18;;;;;;;1.13;0.47;;;14.00;90.80;;;;;;4987785;28;20117;-64
2023/10/21 02:20:44;;;;;;;0.20;0.20;;;14.00;90.80;;;;;;4987071;28;20450;-64
2023/10/21 02:23:10;;;;;;;0.50;0.30;;;14.00;90.60;;;;;;4987638;28;20527;-63
2023/10/21 02:25:35;;;;;;;0.68;0.40;;;14.00;90.60;;;;;;4987259;28;20048;-63
2023/10/21 02:28:02;;;;;;;0.70;0.40;;;14.00;90.60;;;;;;4987487;28;20711;-63
2023/10/21 02:30:28;;;;;;;0.70;0.40;;;14.00;90.60;;;;;;4986202;28;20039;-63
2023/10/21 02:32:54;;;;;;;0.50;0.50;;;14.00;90.50;;;;;;4987727;28;20513;-63
2023/10/21 02:35:21;;;;;;;1.20;0.45;;;14.00;90.90;;;;;;4986876;28;20049;-64
2023/10/21 02:37:47;;;;;;;0.45;0.45;;;14.00;90.50;;;;;;4986561;28;20089;-63
2023/10/21 02:40:16;;;;;;;0.88;0.43;;;14.00;90.50;;;;;;4987021;28;20124;-64
2023/10/21 02:42:45;;;;;;;1.88;0.50;;;14.00;90.50;;;;;;4986497;28;20049;-64
2023/10/21 02:45:11;;;;;;;0.50;0.40;;;14.00;90.50;;;;;;4986384;28;20390;-64
2023/10/21 02:47:37;;;;;;;1.27;0.40;;;14.00;90.50;;;;;;4987281;28;20034;-64
2023/10/21 02:50:03;;;;;;;0.50;0.50;;;14.00;90.50;;;;;;4985262;28;20066;-63
2023/10/21 02:52:29;;;;;;;0.50;0.50;;;14.00;90.70;;;;;;4986098;28;20046;-64
2023/10/21 02:54:55;;;;;;;0.80;0.45;;;14.00;90.50;;;;;;4986708;28;20043;-63
2023/10/21 02:57:20;;;;;;;0.60;0.60;;;14.00;90.50;;;;;;4986912;28;20145;-63
2023/10/21 02:59:46;;;;;;;0.70;0.70;;;14.00;90.50;;;;;;4986574;28;20053;-64
2023/10/21 03:02:13;;;;;;;1.20;0.60;;;14.00;90.50;;;;;;4986351;28;20164;-63
2023/10/21 03:04:39;;;;;;;0.70;0.70;;;14.00;90.50;;;;;;4986354;28;20038;-64
2023/10/21 03:07:05;;;;;;;0.77;0.77;;;14.10;90.50;;;;;;4986666;28;20050;-64
2023/10/21 03:09:30;;;;;;;1.23;0.70;;;14.10;90.50;;;;;;4986701;28;20034;-62
2023/10/21 03:11:56;;;;;;;1.02;0.75;;;14.10;90.50;;;;;;4982883;28;20031;-63
2023/10/21 03:14:22;;;;;;;1.90;0.60;;;14.10;90.50;;;;;;4986484;28;20034;-63
2023/10/21 03:16:48;;;;;;;1.27;0.68;;;14.10;90.50;;;;;;4986008;28;20398;-63
2023/10/21 03:19:14;;;;;;;1.17;0.70;;;14.10;90.50;;;;;;4986092;28;20065;-63
2023/10/21 03:21:40;;;;;;;0.70;0.70;;;14.10;90.50;;;;;;4985932;28;20042;-64
2023/10/21 03:24:06;;;;;;;0.88;0.82;;;14.10;90.50;;;;;;4985890;28;20042;-64
2023/10/21 03:26:31;;;;;;;0.70;0.70;;;14.10;90.50;;;;;;4985791;28;20046;-64
2023/10/21 03:28:57;;;;;;;0.82;0.70;;;14.10;90.50;;;;;;4987294;28;20054;-63
2023/10/21 03:31:23;;;;;;;0.88;0.70;;;14.10;90.50;;;;;;4985399;28;20061;-64
2023/10/21 03:33:49;;;;;;;0.70;0.70;;;14.10;90.50;;;;;;4985983;28;20282;-63
2023/10/21 03:36:14;;;;;;;0.70;0.70;;;14.10;90.50;;;;;;4986275;28;20038;-63
2023/10/21 03:38:42;;;;;;;1.00;0.77;;;14.10;90.50;;;;;;4985716;28;20145;-63
2023/10/21 03:41:09;;;;;;;0.70;0.70;;;14.10;90.40;;;;;;4985360;28;20403;-64
2023/10/21 03:43:35;;;;;;;2.28;0.88;;;14.10;90.40;;;;;;4985886;28;20043;-64
2023/10/21 03:46:04;;;;;;;0.88;0.80;;;14.10;90.50;;;;;;4985730;28;20125;-63
2023/10/21 03:48:29;;;;;;;3.08;0.90;;;14.10;90.50;;;;;;4985376;28;20070;-66
2023/10/21 03:51:06;;;;;;;1.42;0.98;;;14.00;90.50;;;;;;4984282;28;20543;-64
2023/10/21 03:53:33;;;;;;;0.80;0.70;;;14.00;90.50;;;;;;4985597;28;20037;-64
2023/10/21 03:55:59;;;;;;;1.08;0.88;;;14.00;90.50;;;;;;4985959;28;20407;-64
2023/10/21 03:58:26;;;;;;;1.00;0.80;;;14.00;90.60;;;;;;4985582;28;20526;-63
2023/10/21 04:00:52;;;;;;;1.95;1.00;;;14.00;90.60;;;;;;4985971;28;20085;-64
2023/10/21 04:03:17;;;;;;;0.70;0.70;;;14.00;90.60;;;;;;4984195;28;20520;-64
2023/10/21 04:05:43;;;;;;;0.80;0.80;;;14.00;90.60;;;;;;4986224;28;20030;-64
2023/10/21 04:08:09;;;;;;;0.90;0.80;;;14.00;90.70;;;;;;4986065;28;20046;-64
2023/10/21 04:10:35;;;;;;;0.80;0.80;;;14.00;90.60;;;;;;4982464;28;20038;-63
2023/10/21 04:13:02;;;;;;;2.38;0.80;;;14.00;90.60;;;;;;4984986;28;20042;-64
2023/10/21 04:15:28;;;;;;;0.82;0.80;;;14.00;90.60;;;;;;4985421;28;20097;-64
2023/10/21 04:17:53;;;;;;;0.70;0.70;;;14.00;90.60;;;;;;4985730;28;20034;-63
2023/10/21 04:20:19;;;;;;;1.83;0.80;;;14.10;90.60;;;;;;4985497;28;20618;-64
2023/10/21 04:22:44;;;;;;;0.60;0.60;;;14.00;90.60;;;;;;4985489;28;20464;-63
2023/10/21 04:25:13;;;;;;;0.70;0.70;;;14.00;90.60;;;;;;4985483;28;20290;-63
2023/10/21 04:27:38;;;;;;;1.35;0.90;;;14.00;90.60;;;;;;4985115;28;20034;-63
2023/10/21 04:30:05;;;;;;;1.17;0.60;;;14.00;90.70;;;;;;4985177;28;20038;-63
2023/10/21 04:32:31;;;;;;;0.70;0.70;;;14.00;90.70;;;;;;4984446;28;20038;-63
2023/10/21 04:34:57;;;;;;;1.00;0.68;;;14.00;90.70;;;;;;4985062;28;20092;-63
2023/10/21 04:37:23;;;;;;;0.60;0.60;;;14.00;90.80;;;;;;4984658;28;20030;-62
2023/10/21 04:39:48;;;;;;;2.25;0.80;;;14.00;90.80;;;;;;4986414;28;20449;-64
2023/10/21 04:42:14;;;;;;;1.23;0.70;;;14.00;90.80;;;;;;4985397;28;20042;-63
2023/10/21 04:44:39;;;;;;;0.90;0.75;;;14.00;90.80;;;;;;4985283;28;20062;-63
2023/10/21 04:47:05;;;;;;;0.73;0.60;;;14.10;90.80;;;;;;4988568;28;20039;-64
2023/10/21 04:49:31;;;;;;;0.63;0.63;;;14.10;90.80;;;;;;4988378;28;20046;-63
2023/10/21 04:51:57;;;;;;;0.77;0.60;;;14.10;90.80;;;;;;4989232;28;20523;-64
2023/10/21 04:54:22;;;;;;;2.13;0.73;;;14.10;90.80;;;;;;4988235;28;20030;-63
2023/10/21 04:56:51;;;;;;;1.13;0.70;;;14.10;90.80;;;;;;4988774;28;20042;-62
2023/10/21 04:59:17;;;;;;;0.80;0.70;;;14.10;90.80;;;;;;4988911;28;20031;-64
2023/10/21 05:01:42;;;;;;;1.13;0.65;;;14.10;90.80;;;;;;4988665;28;20485;-63
2023/10/21 05:04:10;;;;;;;0.75;0.70;;;14.10;90.80;;;;;;4988599;28;20034;-63
2023/10/21 05:06:36;;;;;;;0.60;0.60;;;14.20;91.20;;;;;;4988111;28;20122;-64
2023/10/21 05:09:02;;;;;;;2.05;0.73;;;14.20;90.80;;;;;;4989207;28;20120;-63
2023/10/21 05:11:28;;;;;;;0.60;0.60;;;14.20;90.80;;;;;;4985029;28;20034;-63
2023/10/21 05:13:53;;;;;;;1.05;0.70;;;14.10;90.80;;;;;;4988013;28;20057;-63
2023/10/21 05:16:19;;;;;;;1.10;0.60;;;14.10;90.80;;;;;;4988096;28;20333;-62
2023/10/21 05:18:45;;;;;;;0.88;0.60;;;14.20;90.80;;;;;;4988424;28;20042;-64
2023/10/21 05:21:10;;;;;;;0.60;0.60;;;14.10;90.80;;;;;;4989597;28;20050;-64
2023/10/21 05:23:36;;;;;;;2.03;0.88;;;14.10;90.80;;;;;;4988026;28;20030;-64
2023/10/21 05:26:02;;;;;;;1.15;0.77;;;14.20;90.80;;;;;;4988349;28;20042;-63
2023/10/21 05:28:27;;;;;;;0.73;0.70;;;14.20;90.90;;;;;;4987370;28;20044;-64
2023/10/21 05:30:53;;;;;;;0.80;0.80;;;14.20;90.90;;;;;;4987956;28;20137;-63
2023/10/21 05:33:19;;;;;;;3.05;2.75;;;14.20;90.90;;;;;;4989061;28;20074;-63
2023/10/21 05:35:44;;;;;;;2.08;1.00;;;14.20;90.90;;;;;;4989254;28;20034;-63
2023/10/21 05:38:10;;;;;;;1.55;1.10;;;14.20;91.20;;;;;;4989479;28;20495;-63
2023/10/21 05:40:36;;;;;;;1.73;0.80;;;14.20;90.80;;;;;;4988210;28;20047;-64
2023/10/21 05:43:02;;;;;;;0.88;0.80;;;14.20;90.90;;;;;;4987499;28;20089;-64
2023/10/21 05:45:27;;;;;;;0.60;0.60;;;14.20;90.90;;;;;;4988326;28;20038;-64
2023/10/21 05:47:53;;;;;;;1.90;0.60;;;14.20;90.90;;;;;;4987878;28;20121;-62
2023/10/21 05:50:21;;;;;;;2.00;0.55;;;14.20;90.90;;;;;;4987036;28;20030;-64
2023/10/21 05:52:46;;;;;;;0.82;0.30;;;14.20;90.90;;;;;;4987667;28;20302;-63
2023/10/21 05:55:12;;;;;;;0.98;0.50;;;14.20;90.90;;;;;;4987643;28;20042;-63
2023/10/21 05:57:38;;;;;;;0.73;0.50;;;14.20;91.00;;;;;;4987540;28;20040;-64
2023/10/21 06:00:07;;;;;;;0.75;0.60;;;14.30;91.00;;;;;;4987535;28;20030;-63
2023/10/21 06:02:33;;;;;;;1.60;0.77;;;14.20;90.90;;;;;;4986648;28;20034;-64
2023/10/21 06:04:58;;;;;;;1.00;0.52;;;14.30;91.00;;;;;;4988411;28;20522;-63
2023/10/21 06:07:24;;;;;;;2.35;0.50;;;14.30;91.00;;;;;;4987464;28;20121;-63
2023/10/21 06:09:49;;;;;;;1.65;0.50;;;14.30;90.90;;;;;;4988694;28;20038;-63
2023/10/21 06:12:15;;;;;;;1.02;0.57;;;14.30;90.90;;;;;;4986285;28;20517;-62
2023/10/21 06:14:41;;;;;;;1.23;0.93;;;14.30;90.90;;;;;;4985422;28;20051;-63
2023/10/21 06:17:07;;;;;;;3.17;1.25;;;14.30;90.90;;;;;;4970407;28;20407;-64
2023/10/21 06:19:32;;;;;;;1.85;0.98;;;14.30;90.90;;;;;;4978946;28;20042;-64
2023/10/21 06:21:58;;;;;;;0.60;0.50;;;14.30;90.90;;;;;;4979064;28;20058;-63
2023/10/21 06:24:24;;;;;;;0.60;0.60;;;14.30;90.90;;;;;;4976935;28;20397;-64
2023/10/21 06:26:50;;;;;;;0.95;0.60;;;14.30;91.00;;;;;;4978862;28;20521;-64
2023/10/21 06:29:16;;;;;;;0.98;0.60;;;14.30;91.00;;;;;;4978887;28;20030;-63
2023/10/21 06:31:41;;;;;;;0.55;0.55;;;14.30;91.00;;;;;;4980688;28;20125;-63
2023/10/21 06:34:08;;;;;;;0.88;0.70;;;14.30;91.00;;;;;;4980877;28;20038;-64
2023/10/21 06:36:34;;;;;;;0.68;0.60;;;14.40;91.10;;;;;;4980898;28;20519;-64
2023/10/21 06:39:00;;;;;;;1.08;0.50;;;14.40;91.10;;;;;;4980756;28;20050;-64
2023/10/21 06:41:26;;;;;;;1.58;0.50;;;14.40;91.10;;;;;;4981556;28;20054;-63
2023/10/21 06:43:51;;;;;;;0.40;0.40;;;14.40;91.50;;;;;;4981584;28;21458;-64
2023/10/21 06:46:18;;;;;;;0.93;0.30;;;14.40;91.10;;;;;;4976967;28;20125;-64
2023/10/21 06:48:44;;;;;;;0.80;0.30;;;14.50;91.20;;;;;;4977419;28;20054;-64
2023/10/21 06:51:10;;;;;;;0.65;0.50;;;14.40;91.20;;;;;;4980995;28;20081;-64
2023/10/21 06:53:35;;;;;;;0.70;0.40;;;14.50;91.20;;;;;;4979926;28;20046;-63
2023/10/21 06:56:01;;;;;;;0.70;0.40;;;14.50;91.10;;;;;;4978572;28;20391;-63
2023/10/21 06:58:27;;;;;;;0.38;0.30;;;14.50;91.10;;;;;;4980857;28;21219;-64
2023/10/21 07:00:52;;;;;;;0.90;0.32;;;14.50;91.10;;;;;;4980559;28;20510;-63
2023/10/21 07:03:19;;;;;;;0.93;0.35;;;14.50;91.10;;;;;;4980969;28;20129;-63
2023/10/21 07:05:45;;;;;;;0.90;0.40;;;14.50;91.10;;;;;;4984388;28;20113;-63
2023/10/21 07:08:11;;;;;;;0.98;0.30;;;14.50;91.10;;;;;;4983604;28;20042;-63
2023/10/21 07:10:38;;;;;;;0.28;0.28;;;14.60;91.10;;;;;;4976289;28;20463;-64
2023/10/21 07:13:04;;;;;;;0.45;0.30;;;14.60;91.10;;;;;;4976836;28;20255;-64
2023/10/21 07:15:32;;;;;;;0.68;0.68;;;14.60;91.10;;;;;;4982383;28;20035;-62
2023/10/21 07:17:58;;;;;;;1.05;0.82;;;14.60;91.10;;;;;;4985501;28;20487;-63
2023/10/21 07:20:25;;;;;;;0.80;0.50;;;14.70;91.10;;;;;;4979498;28;20034;-63
2023/10/21 07:22:51;;;;;;;0.40;0.40;;;14.70;91.10;;;;;;4983121;28;20042;-63
2023/10/21 07:25:20;;;;;;;2.70;0.30;;;14.70;91.10;;;;;;4982571;28;20049;-64
2023/10/21 07:27:49;;;;;;;0.30;0.30;;;14.80;91.10;;;;;;4983884;28;20046;-64
2023/10/21 07:30:15;;;;;;;0.25;0.25;;;14.80;91.10;;;;;;4980452;28;20516;-64
2023/10/21 07:32:41;;;;;;;0.22;0.20;;;14.80;91.00;;;;;;4974291;28;20045;-64
2023/10/21 07:35:07;;;;;;;0.65;0.30;;;14.80;91.00;;;;;;4983038;28;20052;-64
2023/10/21 07:37:33;;;;;;;0.80;0.80;;;14.80;90.90;;;;;;4982752;28;20066;-63
2023/10/21 07:39:59;;;;;;;1.40;0.60;;;14.90;90.90;;;;;;4978325;28;20034;-63
2023/10/21 07:42:25;;;;;;;0.40;0.30;;;14.90;90.90;;;;;;4984243;28;20039;-64
2023/10/21 07:44:52;;;;;;;0.30;0.20;;;14.90;90.80;;;;;;4982730;28;20064;-63
2023/10/21 07:47:18;;;;;;;0.73;0.30;;;14.90;90.80;;;;;;4977654;28;20494;-64
2023/10/21 07:49:43;;;;;;;0.40;0.20;;;14.90;90.80;;;;;;4976672;28;20035;-64
2023/10/21 07:52:09;;;;;;;0.82;0.10;;;14.90;90.80;;;;;;4982390;28;20076;-63
2023/10/21 07:54:39;;;;;;;1.63;0.20;;;15.00;90.80;;;;;;4978765;28;20060;-63
2023/10/21 07:57:05;;;;;;;0.25;0.10;;;15.00;90.80;;;;;;4978285;28;20041;-64
2023/10/21 07:59:30;;;;;;;0.10;0.10;;;15.00;90.80;;;;;;4979596;28;20038;-63
2023/10/21 08:01:56;;;;;;;0.10;0.10;;;15.00;90.80;;;;;;4963917;28;20089;-64
2023/10/21 08:04:22;;;;;;;0.30;0.10;;;15.00;90.80;;;;;;4971909;28;20034;-64
2023/10/21 08:06:47;;;;;;;0.22;0.20;;;15.10;90.80;;;;;;4979388;28;20099;-63
2023/10/21 08:09:17;;;;;;;0.15;0.15;;;15.10;90.70;;;;;;4978804;28;20102;-64
2023/10/21 08:11:43;;;;;;;0.50;0.30;;;15.10;90.60;;;;;;4974606;28;20034;-64
2023/10/21 08:14:10;;;;;;;1.10;0.65;;;15.10;90.60;;;;;;4977266;28;20056;-64
2023/10/21 08:16:36;;;;;;;0.90;0.50;;;15.10;90.60;;;;;;4981166;28;20038;-63
2023/10/21 08:19:02;;;;;;;0.60;0.35;;;15.10;90.50;;;;;;4984112;28;20030;-63
2023/10/21 08:21:27;;;;;;;2.28;0.32;;;15.10;90.50;;;;;;4986177;28;20127;-63
2023/10/21 08:23:53;;;;;;;1.70;0.38;;;15.10;90.50;;;;;;4981973;28;20039;-64
2023/10/21 08:26:19;;;;;;;0.60;0.30;;;15.20;90.50;;;;;;4987278;28;20361;-64
2023/10/21 08:28:44;;;;;;;0.20;0.10;;;15.20;90.40;;;;;;4987188;28;20133;-64
2023/10/21 08:31:10;;;;;;;0.75;0.25;;;15.20;90.40;;;;;;4989709;28;20037;-63
2023/10/21 08:33:35;;;;;;;0.50;0.38;;;15.20;90.40;;;;;;4987280;28;20089;-63
2023/10/21 08:36:01;;;;;;;0.47;0.40;;;15.20;90.40;;;;;;4988012;28;20042;-63
2023/10/21 08:38:27;;;;;;;0.20;0.20;;;15.20;90.40;;;;;;4988228;28;20034;-63
2023/10/21 08:40:53;;;;;;;0.65;0.30;;;15.20;90.30;;;;;;4988971;28;20034;-64
2023/10/21 08:43:19;;;;;;;0.95;0.60;;;15.20;90.20;;;;;;4988781;28;20530;-63
2023/10/21 08:45:46;;;;;;;1.95;0.47;;;15.30;90.20;;;;;;4987554;28;20113;-63
2023/10/21 08:48:13;;;;;;;0.20;0.20;;;15.20;90.20;;;;;;4989232;28;20548;-63
2023/10/21 08:50:40;;;;;;;0.30;0.20;;;15.30;90.20;;;;;;4987931;28;20122;-63
2023/10/21 08:53:11;;;;;;;0.20;0.20;;;15.30;90.20;;;;;;4988090;28;20445;-62
2023/10/21 08:55:38;;;;;;;1.73;0.30;;;15.30;90.20;;;;;;4989056;28;20022;-63
2023/10/21 08:58:06;;;;;;;0.88;0.40;;;15.30;90.20;;;;;;4988930;28;20506;-63
2023/10/21 09:00:32;;;;;;;0.47;0.30;;;15.40;90.10;;;;;;4986849;28;20034;-64
2023/10/21 09:02:59;;;;;;;0.75;0.30;;;15.40;90.50;;;;;;4993837;28;20061;-63
2023/10/21 09:05:24;;;;;;;0.57;0.20;;;15.40;90.10;;;;;;4988327;28;20189;-62
2023/10/21 09:07:50;;;;;;;1.17;0.00;;;15.40;90.00;;;;;;4989225;28;20554;-63
2023/10/21 09:10:17;;;;;;;0.90;0.30;;;15.50;89.90;;;;;;4988872;28;20072;-63
2023/10/21 09:12:43;;;;;;;0.30;0.30;;;15.50;89.90;;;;;;4985281;28;20033;-64
2023/10/21 09:15:09;;;;;;;0.30;0.20;;;15.50;89.90;;;;;;4985809;28;20409;-63
2023/10/21 09:17:45;;;;;;;1.27;0.60;;;15.60;89.90;;;;;;4988789;28;20030;-64
2023/10/21 09:20:13;;;;;;;2.35;0.40;;;15.60;90.00;;;;;;4985282;28;20034;-63
2023/10/21 09:22:41;;;;;;;0.77;0.50;;;15.60;90.00;;;;;;4987583;28;20035;-63
2023/10/21 09:25:14;;;;;;;2.97;0.70;;;15.60;90.00;;;;;;4988261;28;20158;-63
2023/10/21 09:27:53;;;;;;;1.85;1.05;;;15.60;90.10;;;;;;4987381;28;20517;-63
2023/10/21 09:30:20;;;;;;;0.40;0.40;;;15.60;90.10;;;;;;4986365;28;20164;-64
2023/10/21 09:32:52;;;;;;;0.52;0.22;;;15.70;90.10;;;;;;4987012;28;20517;-63
2023/10/21 09:35:25;;;;;;;0.50;0.35;;;15.70;90.00;;;;;;4987905;28;20123;-63
2023/10/21 09:37:51;;;;;;;0.82;0.15;;;15.70;90.10;;;;;;4987295;28;20042;-63
2023/10/21 09:40:18;;;;;;;0.85;0.20;;;15.70;90.10;;;;;;4987178;28;20030;-63
2023/10/21 09:42:44;;;;;;;0.22;0.20;;;15.80;90.10;;;;;;4985648;28;20129;-63
2023/10/21 09:45:12;;;;;;;0.30;0.20;;;15.80;90.10;;;;;;4984422;28;20612;-63
2023/10/21 09:47:41;;;;;;;0.28;0.20;;;15.80;90.10;;;;;;4984493;28;20476;-63
2023/10/21 09:50:11;;;;;;;0.20;0.20;;;15.90;90.10;;;;;;4986466;28;20026;-63
2023/10/21 09:53:11;;;;;;;1.27;0.40;;;15.90;90.00;;;;;;4989086;28;20088;-63
2023/10/21 09:55:37;;;;;;;1.08;0.40;;;15.90;89.60;;;;;;4971211;28;20042;-63
2023/10/21 09:58:04;;;;;;;0.52;0.17;;;16.00;90.00;;;;;;4988961;28;20057;-63
2023/10/21 10:00:30;;;;;;;0.40;0.40;;;16.00;89.70;;;;;;4988648;28;20100;-63
2023/10/21 10:02:57;;;;;;;0.50;0.40;;;16.10;89.70;;;;;;4988816;28;20070;-63
2023/10/21 10:05:23;;;;;;;0.30;0.30;;;16.10;89.30;;;;;;4988558;28;20513;-62
2023/10/21 10:07:49;;;;;;;0.20;0.20;;;16.20;89.10;;;;;;4988608;28;20058;-64
2023/10/21 10:10:21;;;;;;;0.43;0.20;;;16.10;88.80;;;;;;4988035;28;20562;-62
2023/10/21 10:12:49;;;;;;;0.20;0.20;;;16.20;88.50;;;;;;4987009;28;20458;-62
2023/10/21 10:15:39;;;;;;;2.28;0.50;;;16.20;88.70;;;;;;4988775;28;20035;-62
2023/10/21 10:18:08;;;;;;;0.75;0.50;;;16.30;88.30;;;;;;4989179;28;20034;-62
2023/10/21 10:20:34;;;;;;;0.45;0.30;;;16.30;88.80;;;;;;4988311;28;20034;-63
2023/10/21 10:23:08;;;;;;;1.17;0.70;;;16.30;88.60;;;;;;4988983;28;20093;-63
2023/10/21 10:25:35;;;;;;;2.22;0.70;;;16.40;88.20;;;;;;4988693;28;20462;-63
2023/10/21 10:28:07;;;;;;;2.72;0.55;;;16.40;88.20;;;;;;4988975;28;20556;-62
2023/10/21 10:30:34;;;;;;;1.45;0.30;;;16.40;87.90;;;;;;4987386;28;20570;-63
2023/10/21 10:33:15;;;;;;;0.70;0.13;;;16.50;87.70;;;;;;4988194;28;20065;-63
2023/10/21 10:35:55;;;;;;;0.20;0.20;;;16.50;86.50;;;;;;4988898;28;20034;-63
2023/10/21 10:38:24;;;;;;;0.50;0.20;;;16.50;86.30;;;;;;4988282;28;20116;-63
2023/10/21 10:40:52;;;;;;;0.60;0.20;;;16.60;86.80;;;;;;4988036;28;20039;-63
2023/10/21 10:43:19;;;;;;;0.20;0.20;;;16.60;86.40;;;;;;4987137;28;20037;-64
2023/10/21 10:45:45;;;;;;;0.50;0.20;;;16.60;86.40;;;;;;4988284;28;20054;-64
2023/10/21 10:48:12;;;;;;;0.40;0.25;;;16.70;86.50;;;;;;4988351;28;20031;-63
2023/10/21 10:50:37;;;;;;;0.68;0.20;;;16.70;86.00;;;;;;4984814;28;20090;-64
2023/10/21 10:53:22;;;;;;;0.47;0.30;;;16.70;85.60;;;;;;4983466;28;20565;-64
2023/10/21 10:55:49;;;;;;;0.57;0.17;;;16.80;84.10;;;;;;4984209;28;20065;-64
2023/10/21 10:58:16;;;;;;;0.10;0.10;;;16.70;84.50;;;;;;4983012;28;20318;-64
2023/10/21 11:00:42;;;;;;;0.75;0.30;;;16.80;84.40;;;;;;4985936;28;20409;-63
2023/10/21 11:03:08;;;;;;;0.65;0.30;;;16.80;84.30;;;;;;4986993;28;20498;-64
2023/10/21 11:05:37;;;;;;;1.13;0.60;;;16.80;84.20;;;;;;4986080;28;20557;-63
2023/10/21 11:08:05;;;;;;;1.85;0.65;;;16.80;84.10;;;;;;4985870;28;20050;-63
2023/10/21 11:10:30;;;;;;;1.15;0.30;;;16.80;84.30;;;;;;4985001;28;20034;-64
2023/10/21 11:12:56;;;;;;;0.70;0.40;;;16.90;84.10;;;;;;4985917;28;20069;-62
2023/10/21 11:15:23;;;;;;;1.80;1.27;;;16.90;83.40;;;;;;4985719;28;20130;-64
2023/10/21 11:17:51;;;;;;;0.98;0.50;;;16.90;83.80;;;;;;4987105;28;20035;-64
2023/10/21 11:20:18;;;;;;;0.63;0.30;;;16.90;82.90;;;;;;4985219;28;20483;-63
2023/10/21 11:22:44;;;;;;;0.57;0.45;;;16.90;82.80;;;;;;4986053;28;20038;-64
2023/10/21 11:25:10;;;;;;;2.22;0.30;;;16.90;82.60;;;;;;4984917;28;20081;-64
2023/10/21 11:27:39;;;;;;;0.57;0.13;;;17.00;82.50;;;;;;4986489;28;20035;-64
2023/10/21 11:30:09;;;;;;;1.00;0.28;;;17.00;82.40;;;;;;4983682;28;20051;-64
2023/10/21 11:32:37;;;;;;;0.30;0.30;;;17.00;81.90;;;;;;4987209;28;20035;-64
2023/10/21 11:35:09;;;;;;;0.52;0.20;;;17.00;82.00;;;;;;4987407;28;20604;-64
2023/10/21 11:37:37;;;;;;;1.30;0.22;;;17.10;80.90;;;;;;4987514;28;20035;-63
2023/10/21 11:40:03;;;;;;;0.60;0.30;;;17.10;80.80;;;;;;4985042;28;20627;-63
2023/10/21 11:42:29;;;;;;;0.35;0.20;;;17.10;80.70;;;;;;4986016;28;20064;-63
2023/10/21 11:44:56;;;;;;;1.98;0.22;;;17.20;80.10;;;;;;4986414;28;20409;-64
2023/10/21 11:47:31;;;;;;;0.98;0.25;;;17.10;79.70;;;;;;4984674;28;20037;-63
2023/10/21 11:49:57;;;;;;;0.65;0.30;;;17.20;78.10;;;;;;4985972;28;20035;-64
2023/10/21 11:52:25;;;;;;;0.60;0.30;;;17.10;78.60;;;;;;4984976;28;20041;-64
2023/10/21 11:57:49;;;;;;;0.85;0.38;;;17.10;77.50;;;;;;4986779;28;20037;-63
2023/10/21 12:37:52;;;;;;;2.25;0.30;;;16.50;80.00;;;;;;4986972;28;20065;-65
2023/10/21 12:40:30;;;;;;;0.63;0.30;;;16.40;80.30;;;;;;4986014;28;20052;-65
2023/10/21 12:45:48;;;;;;;1.33;0.40;;;16.30;81.00;;;;;;4986687;28;20034;-64
2023/10/21 12:48:17;;;;;;;1.77;0.40;;;16.20;81.30;;;;;;4986624;28;20034;-65
2023/10/21 12:50:44;;;;;;;0.60;0.40;;;16.10;81.50;;;;;;4986383;28;20061;-64
2023/10/21 12:53:10;;;;;;;2.50;0.68;;;16.00;81.70;;;;;;4985183;28;20418;-65
2023/10/21 12:55:37;;;;;;;2.40;1.30;;;16.00;82.10;;;;;;4986204;28;20058;-64
2023/10/21 12:58:03;;;;;;;2.03;1.00;;;15.90;82.20;;;;;;4987092;28;20038;-63
2023/10/21 13:00:29;;;;;;;1.33;0.80;;;15.80;82.30;;;;;;4985726;28;20035;-64
2023/10/21 13:02:55;;;;;;;2.83;0.80;;;15.80;82.60;;;;;;4984820;28;20681;-64
2023/10/21 13:05:20;;;;;;;1.50;0.80;;;15.70;83.10;;;;;;4985761;28;20074;-64
2023/10/21 13:07:46;;;;;;;1.10;0.57;;;15.60;83.40;;;;;;4990719;28;20541;-64
2023/10/21 13:10:13;;;;;;;0.70;0.60;;;15.60;83.60;;;;;;4990205;28;20505;-64
2023/10/21 13:12:39;;;;;;;1.55;1.02;;;15.60;83.90;;;;;;4987599;28;20161;-64
2023/10/21 13:15:11;;;;;;;2.15;1.10;;;15.50;84.30;;;;;;4972343;28;20133;-64
2023/10/21 13:17:37;;;;;;;2.10;0.90;;;15.50;84.50;;;;;;4983164;28;20230;-63
2023/10/21 13:20:04;;;;;;;2.83;0.88;;;15.50;84.80;;;;;;4968297;28;20450;-64
2023/10/21 13:22:32;;;;;;;2.10;1.27;;;15.50;85.00;;;;;;4981642;28;20027;-64
2023/10/21 13:24:58;;;;;;;1.25;0.60;;;15.40;85.20;;;;;;4982840;28;20134;-64
2023/10/21 13:27:23;;;;;;;1.05;0.80;;;15.40;85.30;;;;;;4967282;28;20031;-64
2023/10/21 13:29:49;;;;;;;1.50;1.05;;;15.40;85.30;;;;;;4980538;28;20046;-64